Time;durP1;ratioP1;P1;durP2;ratioP2;P2;SDS_P1;SDS_P2;PMS_P1;PMS_P2;Temp;Humidity;BMP_temperature;BMP_pressure;BME280_temperature;BME280_humidity;BME280_pressure;Samples;Min_cycle;Max_cycle;Signal;HPM_P1;HPM_P2
2023/08/06 00:01:39;;;;;;;11.15;5.40;;;;;;;18.42;85.28;98827.00;5074164;28;20040;-75
2023/08/06 00:04:23;;;;;;;10.75;5.57;;;;;;;18.86;84.74;98828.69;5077880;28;20387;-77
2023/08/06 00:07:07;;;;;;;9.88;5.13;;;;;;;18.58;84.63;98837.78;5076341;28;20058;-75
2023/08/06 00:09:51;;;;;;;10.27;5.40;;;;;;;18.70;84.79;98839.22;5080184;28;20044;-75
2023/08/06 00:12:35;;;;;;;13.20;6.10;;;;;;;18.64;84.55;98832.25;5080755;28;20089;-75
2023/08/06 00:15:19;;;;;;;9.30;5.22;;;;;;;18.72;84.48;98833.63;5080822;28;20460;-76
2023/08/06 00:18:03;;;;;;;10.93;5.47;;;;;;;18.45;85.03;98837.13;5075692;28;20398;-75
2023/08/06 00:20:47;;;;;;;8.82;5.32;;;;;;;18.79;84.15;98838.75;5076398;28;20085;-76
2023/08/06 00:23:31;;;;;;;10.65;5.47;;;;;;;19.02;83.70;98855.44;5077781;28;20051;-76
2023/08/06 00:26:15;;;;;;;11.32;5.60;;;;;;;19.20;83.35;98841.72;5079911;28;20042;-77
2023/08/06 00:28:59;;;;;;;13.25;6.57;;;;;;;18.82;83.88;98840.91;5079390;28;20063;-76
2023/08/06 00:31:43;;;;;;;10.40;5.05;;;;;;;19.12;83.10;98852.88;5076583;28;20149;-75
2023/08/06 00:34:27;;;;;;;10.75;5.57;;;;;;;18.78;84.05;98853.09;5079343;28;20162;-76
2023/08/06 00:37:11;;;;;;;10.30;5.65;;;;;;;18.67;83.90;98855.69;5080251;28;20179;-75
2023/08/06 00:39:55;;;;;;;10.70;5.18;;;;;;;18.76;84.05;98849.91;5078195;28;20047;-75
2023/08/06 00:42:39;;;;;;;14.05;5.70;;;;;;;18.80;84.40;98857.13;5083029;28;20124;-75
2023/08/06 00:45:23;;;;;;;12.48;7.05;;;;;;;18.25;85.34;98861.63;5078219;28;20109;-75
2023/08/06 00:48:07;;;;;;;9.93;5.78;;;;;;;18.47;85.18;98850.16;5079751;28;20050;-75
2023/08/06 00:50:51;;;;;;;10.60;5.40;;;;;;;18.38;85.81;98850.63;5082877;28;20051;-75
2023/08/06 00:53:37;;;;;;;8.70;5.10;;;;;;;18.77;84.59;98856.81;5079241;28;20127;-75
2023/08/06 00:56:21;;;;;;;7.45;4.97;;;;;;;18.62;84.85;98855.63;5075878;28;20081;-75
2023/08/06 00:59:05;;;;;;;11.07;5.53;;;;;;;18.67;84.79;98868.97;5079139;28;20122;-75
2023/08/06 01:01:50;;;;;;;10.80;5.47;;;;;;;18.84;83.98;98873.34;5079952;28;20063;-75
2023/08/06 01:04:34;;;;;;;7.63;5.80;;;;;;;18.54;84.51;98869.38;5073027;28;20379;-75
2023/08/06 01:07:39;;;;;;;9.38;5.07;;;;;;;18.36;84.35;98873.16;5076511;28;20082;-75
2023/08/06 01:10:23;;;;;;;11.48;5.22;;;;;;;18.12;85.89;98874.25;5074081;28;20051;-75
2023/08/06 01:13:12;;;;;;;9.45;5.43;;;;;;;18.81;84.54;98868.53;5079306;28;20051;-76
2023/08/06 01:15:58;;;;;;;9.73;5.20;;;;;;;18.45;85.26;98865.56;5072890;28;20124;-76
2023/08/06 01:18:45;;;;;;;9.68;5.22;;;;;;;18.70;85.22;98868.47;5073904;28;20048;-75
2023/08/06 01:21:29;;;;;;;12.95;5.85;;;;;;;18.65;85.59;98870.28;5070973;28;20071;-75
2023/08/06 01:24:13;;;;;;;14.25;5.18;;;;;;;18.87;84.96;98867.56;5078718;28;20036;-78
2023/08/06 01:27:14;;;;;;;8.80;5.35;;;;;;;18.47;85.79;98882.03;5075614;28;20059;-76
2023/08/06 01:30:06;;;;;;;8.80;5.47;;;;;;;18.42;85.68;98883.59;5078009;28;20042;-76
2023/08/06 01:32:56;;;;;;;8.95;5.18;;;;;;;18.25;85.40;98883.69;5087560;28;20031;-76
2023/08/06 01:35:42;;;;;;;11.40;4.80;;;;;;;18.76;84.94;98884.47;5075915;28;20047;-76
2023/08/06 01:38:28;;;;;;;11.60;4.90;;;;;;;18.49;85.22;98895.91;5073326;28;20155;-76
2023/08/06 01:41:12;;;;;;;8.65;5.28;;;;;;;18.37;86.05;98877.44;5078718;28;20119;-76
2023/08/06 01:43:56;;;;;;;8.20;4.70;;;;;;;18.54;85.21;98895.97;5077650;28;20051;-76
2023/08/06 01:46:40;;;;;;;10.05;5.20;;;;;;;18.67;84.99;98884.94;5075416;28;20050;-76
2023/08/06 01:49:24;;;;;;;6.75;4.68;;;;;;;18.55;84.45;98898.34;5071895;28;20401;-76
2023/08/06 01:52:08;;;;;;;8.80;5.03;;;;;;;18.40;84.83;98896.34;5074352;28;20043;-77
2023/08/06 01:54:52;;;;;;;12.05;5.20;;;;;;;18.65;84.41;98894.97;5075378;28;20043;-77
2023/08/06 01:57:36;;;;;;;11.18;5.28;;;;;;;18.86;83.90;98892.50;5076670;28;20043;-76
2023/08/06 02:00:20;;;;;;;10.63;5.18;;;;;;;18.82;83.79;98902.06;5078644;28;20062;-77
2023/08/06 02:03:04;;;;;;;8.77;5.05;;;;;;;18.96;83.54;98903.25;5072672;28;20094;-77
2023/08/06 02:05:48;;;;;;;7.97;5.22;;;;;;;18.94;83.79;98907.22;5073517;28;20055;-75
2023/08/06 02:08:31;;;;;;;10.48;5.20;;;;;;;18.44;85.03;98901.16;5078804;28;20121;-76
2023/08/06 02:11:15;;;;;;;6.45;4.53;;;;;;;18.89;83.86;98901.84;5070436;28;20511;-76
2023/08/06 02:13:59;;;;;;;9.70;5.72;;;;;;;18.53;84.53;98916.41;5072478;28;20047;-76
2023/08/06 02:16:43;;;;;;;9.15;5.00;;;;;;;19.40;82.58;98912.94;5077554;28;20043;-76
2023/08/06 02:19:28;;;;;;;10.02;5.22;;;;;;;18.40;84.08;98912.28;5078851;28;20074;-76
2023/08/06 02:22:12;;;;;;;12.88;4.80;;;;;;;18.64;83.33;98919.97;5077850;28;20035;-77
2023/08/06 02:24:56;;;;;;;7.00;5.10;;;;;;;18.72;83.95;98913.41;5073821;28;20051;-77
2023/08/06 02:27:40;;;;;;;8.57;4.90;;;;;;;18.35;84.12;98914.06;5079478;28;20047;-77
2023/08/06 02:30:24;;;;;;;13.68;5.22;;;;;;;19.16;82.92;98914.31;5081669;28;20048;-76
2023/08/06 02:33:08;;;;;;;13.50;5.50;;;;;;;18.76;83.55;98913.72;5077165;28;20055;-77
2023/08/06 02:35:59;;;;;;;8.73;5.38;;;;;;;18.45;83.99;98910.72;5077472;28;20047;-76
2023/08/06 02:38:43;;;;;;;11.43;5.22;;;;;;;18.74;83.62;98910.50;5082810;28;20043;-76
2023/08/06 02:41:27;;;;;;;12.88;5.75;;;;;;;18.72;83.24;98897.44;5082177;28;20142;-76
2023/08/06 02:44:11;;;;;;;8.27;5.00;;;;;;;18.67;83.74;98910.69;5075943;28;20039;-76
2023/08/06 02:46:55;;;;;;;10.55;5.28;;;;;;;17.93;85.21;98907.47;5083516;28;20399;-76
2023/08/06 02:49:39;;;;;;;7.65;4.88;;;;;;;18.82;82.87;98902.06;5077890;28;20063;-77
2023/08/06 02:52:23;;;;;;;8.57;5.60;;;;;;;18.88;82.61;98902.91;5076552;28;20518;-76
2023/08/06 02:55:07;;;;;;;9.68;4.97;;;;;;;19.05;82.08;98911.59;5077726;28;20097;-77
2023/08/06 02:57:51;;;;;;;8.65;5.20;;;;;;;19.12;81.71;98917.50;5080544;28;20702;-76
2023/08/06 03:00:35;;;;;;;10.68;5.75;;;;;;;18.84;81.76;98923.88;5076731;28;20075;-76
2023/08/06 03:03:19;;;;;;;8.45;5.10;;;;;;;18.67;82.24;98919.50;5081589;28;20498;-77
2023/08/06 03:06:03;;;;;;;7.82;4.53;;;;;;;18.52;81.80;98908.69;5080536;28;20601;-76
2023/08/06 03:08:47;;;;;;;12.00;5.32;;;;;;;18.69;81.87;98927.19;5079513;28;20097;-76
2023/08/06 03:11:31;;;;;;;11.45;5.57;;;;;;;18.73;82.04;98919.53;5075790;28;20089;-77
2023/08/06 03:14:15;;;;;;;7.78;5.10;;;;;;;18.49;82.66;98925.16;5076089;28;20150;-77
2023/08/06 03:16:59;;;;;;;8.02;5.25;;;;;;;18.56;82.10;98918.56;5073523;28;20557;-77
2023/08/06 03:19:43;;;;;;;5.93;4.57;;;;;;;18.69;82.25;98912.06;5077728;28;20455;-76
2023/08/06 03:22:27;;;;;;;7.78;4.68;;;;;;;18.69;81.76;98919.22;5083428;28;20043;-76
2023/08/06 03:25:11;;;;;;;6.65;4.95;;;;;;;19.16;80.46;98917.81;5082412;28;20374;-76
2023/08/06 03:27:55;;;;;;;8.05;4.75;;;;;;;18.22;81.75;98915.25;5082085;28;20496;-77
2023/08/06 03:30:39;;;;;;;6.05;4.35;;;;;;;19.14;79.98;98914.59;5076489;28;20120;-77
2023/08/06 03:33:23;;;;;;;7.00;4.60;;;;;;;18.49;80.92;98915.31;5082501;28;20051;-78
2023/08/06 03:36:07;;;;;;;9.98;4.75;;;;;;;18.55;81.13;98914.28;5079240;28;20047;-76
2023/08/06 03:38:51;;;;;;;7.53;4.93;;;;;;;18.36;81.80;98911.19;5075885;28;20040;-76
2023/08/06 03:41:35;;;;;;;8.55;5.25;;;;;;;18.15;82.21;98915.44;5079397;28;20092;-78
2023/08/06 03:44:19;;;;;;;13.02;5.85;;;;;;;18.61;80.94;98915.16;5075219;28;20044;-79
2023/08/06 03:47:03;;;;;;;8.13;4.95;;;;;;;18.20;81.30;98920.03;5078065;28;20051;-76
2023/08/06 03:49:49;;;;;;;8.15;4.53;;;;;;;18.52;81.26;98919.31;5073878;28;20414;-78
2023/08/06 03:52:33;;;;;;;9.45;4.60;;;;;;;18.52;80.74;98914.78;5081825;28;20157;-76
2023/08/06 03:55:17;;;;;;;8.48;4.80;;;;;;;18.91;79.54;98905.06;5078514;28;20167;-76
2023/08/06 03:58:01;;;;;;;10.45;5.88;;;;;;;19.06;79.50;98917.72;5074280;28;20039;-77
2023/08/06 04:00:45;;;;;;;9.43;4.47;;;;;;;18.79;78.85;98913.19;5079866;28;20058;-76
2023/08/06 04:03:29;;;;;;;9.13;4.93;;;;;;;18.93;79.03;98914.41;5077418;28;20073;-78
2023/08/06 04:06:13;;;;;;;8.98;4.75;;;;;;;18.84;79.57;98919.38;5076991;28;20079;-78
2023/08/06 04:08:57;;;;;;;7.75;3.92;;;;;;;18.99;78.54;98917.94;5079425;28;20074;-78
2023/08/06 04:11:41;;;;;;;7.68;4.45;;;;;;;18.77;78.58;98925.94;5078267;28;20047;-78
2023/08/06 04:14:26;;;;;;;9.38;4.55;;;;;;;19.44;77.55;98918.53;5078144;28;20090;-78
2023/08/06 04:17:10;;;;;;;8.55;4.50;;;;;;;19.28;77.62;98933.59;5076358;28;20133;-79
2023/08/06 04:19:55;;;;;;;6.50;4.40;;;;;;;19.35;77.59;98920.06;5074311;28;20046;-79
2023/08/06 04:22:39;;;;;;;7.78;4.40;;;;;;;19.19;77.58;98924.47;5074552;28;20122;-79
2023/08/06 04:25:23;;;;;;;8.02;4.57;;;;;;;19.27;76.87;98924.81;5079875;28;20190;-78
2023/08/06 04:28:07;;;;;;;11.38;5.10;;;;;;;19.64;76.90;98922.38;5081498;28;20088;-80
2023/08/06 04:30:53;;;;;;;8.43;4.85;;;;;;;19.64;77.02;98935.69;5079249;28;20083;-79
2023/08/06 04:33:37;;;;;;;8.88;4.70;;;;;;;19.15;77.32;98934.81;5077283;28;20055;-76
2023/08/06 04:36:21;;;;;;;10.57;5.40;;;;;;;19.23;77.67;98926.34;5077203;28;20077;-76
2023/08/06 04:39:05;;;;;;;5.53;4.53;;;;;;;19.16;77.73;98923.13;5077733;28;20120;-76
2023/08/06 04:41:49;;;;;;;8.63;4.70;;;;;;;19.11;77.86;98931.84;5079329;28;20398;-78
2023/08/06 04:44:33;;;;;;;10.02;4.72;;;;;;;19.67;77.01;98932.53;5081499;28;20031;-79
2023/08/06 04:47:18;;;;;;;5.50;4.15;;;;;;;19.78;75.80;98934.19;5074666;28;20074;-75
2023/08/06 04:50:02;;;;;;;6.38;4.63;;;;;;;19.65;75.71;98934.63;5077130;28;20123;-79
2023/08/06 04:52:46;;;;;;;10.57;4.70;;;;;;;18.74;77.50;98924.59;5076957;28;20176;-76
2023/08/06 04:55:30;;;;;;;8.00;4.40;;;;;;;19.10;75.92;98929.47;5076925;28;20047;-79
2023/08/06 04:58:14;;;;;;;4.88;4.03;;;;;;;20.03;75.03;98940.72;5078909;28;20089;-80
2023/08/06 05:00:58;;;;;;;8.57;4.70;;;;;;;19.93;73.74;98943.34;5078107;28;20035;-79
2023/08/06 05:03:42;;;;;;;6.68;4.20;;;;;;;19.62;75.10;98932.47;5073790;28;20087;-76
2023/08/06 05:06:26;;;;;;;9.02;4.93;;;;;;;19.58;75.08;98944.72;5077571;28;20409;-78
2023/08/06 05:09:10;;;;;;;8.23;4.75;;;;;;;19.70;74.74;98937.34;5075733;28;20465;-78
2023/08/06 05:11:54;;;;;;;7.35;4.25;;;;;;;20.15;73.57;98953.03;5078055;28;20458;-76
2023/08/06 05:14:38;;;;;;;7.15;4.47;;;;;;;19.90;74.46;98947.28;5075860;28;20097;-76
2023/08/06 05:17:23;;;;;;;7.35;4.35;;;;;;;20.38;73.42;98955.25;5076316;28;20042;-78
2023/08/06 05:20:07;;;;;;;6.10;4.38;;;;;;;20.40;73.47;98945.13;5080580;28;20097;-79
2023/08/06 05:22:51;;;;;;;7.63;4.40;;;;;;;20.25;73.72;98950.44;5079394;28;20472;-77
2023/08/06 05:25:35;;;;;;;6.88;4.78;;;;;;;19.66;74.88;98955.69;5074066;28;20505;-76
2023/08/06 05:28:20;;;;;;;8.52;4.20;;;;;;;19.45;75.22;98956.59;5078071;28;20127;-76
2023/08/06 05:31:04;;;;;;;7.25;4.43;;;;;;;20.34;73.66;98961.38;5075725;28;20226;-76
2023/08/06 05:33:48;;;;;;;7.35;4.47;;;;;;;20.24;73.51;98964.78;5081149;28;20527;-77
2023/08/06 05:36:32;;;;;;;9.75;4.40;;;;;;;20.06;73.40;98972.19;5081179;28;20526;-77
2023/08/06 05:39:16;;;;;;;10.98;4.47;;;;;;;20.45;72.75;98972.91;5077586;28;20077;-78
2023/08/06 05:42:00;;;;;;;6.35;4.22;;;;;;;20.08;73.13;98970.06;5069292;28;20040;-76
2023/08/06 05:44:44;;;;;;;7.60;4.43;;;;;;;20.27;72.09;98982.94;5079171;28;20520;-76
2023/08/06 05:47:28;;;;;;;6.10;3.95;;;;;;;19.83;73.13;98979.47;5078075;28;20539;-76
2023/08/06 05:50:12;;;;;;;9.60;4.15;;;;;;;20.26;72.71;98986.69;5075175;28;20162;-76
2023/08/06 05:52:56;;;;;;;5.30;3.90;;;;;;;19.92;72.39;98993.16;5076204;28;20043;-76
2023/08/06 05:55:40;;;;;;;6.68;3.97;;;;;;;20.09;73.42;98987.66;5074731;28;20051;-77
2023/08/06 05:58:26;;;;;;;5.43;3.95;;;;;;;20.20;72.44;98995.69;5076131;28;20047;-76
2023/08/06 06:01:10;;;;;;;7.15;3.95;;;;;;;20.17;71.88;98997.03;5081771;28;20081;-76
2023/08/06 06:03:54;;;;;;;6.50;3.95;;;;;;;20.04;72.37;98995.59;5080041;28;20136;-75
2023/08/06 06:06:38;;;;;;;6.97;4.05;;;;;;;20.98;71.24;99000.25;5080232;28;20038;-76
2023/08/06 06:09:24;;;;;;;8.65;4.25;;;;;;;19.99;72.90;99008.91;5078940;28;20075;-76
2023/08/06 06:12:09;;;;;;;9.77;4.38;;;;;;;20.19;71.90;99007.41;5083269;28;20059;-76
2023/08/06 06:14:53;;;;;;;7.20;4.30;;;;;;;20.77;71.07;99007.38;5079778;28;20112;-76
2023/08/06 06:17:37;;;;;;;5.63;4.07;;;;;;;21.45;70.04;99005.63;5082740;28;20066;-77
2023/08/06 06:20:20;;;;;;;6.07;4.03;;;;;;;20.72;70.17;99009.22;5073981;28;20047;-79
2023/08/06 06:23:04;;;;;;;7.15;3.75;;;;;;;19.96;71.53;99014.75;5061988;28;20052;-78
2023/08/06 06:25:51;;;;;;;6.07;4.00;;;;;;;20.76;71.08;99020.97;5064127;28;20051;-77
2023/08/06 06:28:35;;;;;;;5.90;3.97;;;;;;;21.46;70.13;99022.44;5078526;28;20056;-77
2023/08/06 06:31:19;;;;;;;6.30;3.53;;;;;;;21.32;70.03;99022.97;5082409;28;20147;-77
2023/08/06 06:34:03;;;;;;;5.35;3.50;;;;;;;21.45;69.74;99027.00;5077966;28;20398;-77
2023/08/06 06:36:47;;;;;;;6.50;3.67;;;;;;;20.90;69.33;99038.13;5078298;28;20096;-76
2023/08/06 06:39:32;;;;;;;5.53;3.45;;;;;;;21.47;68.69;99032.88;5080354;28;20097;-77
2023/08/06 06:42:16;;;;;;;4.80;3.75;;;;;;;21.61;68.84;99040.31;5083005;28;20063;-77
2023/08/06 06:45:00;;;;;;;4.97;3.63;;;;;;;21.59;68.30;99047.81;5080583;28;20098;-78
2023/08/06 06:47:44;;;;;;;7.53;4.40;;;;;;;21.68;68.65;99046.25;5081537;28;20505;-77
2023/08/06 06:50:28;;;;;;;7.07;3.58;;;;;;;22.02;68.31;99039.50;5081131;28;20039;-78
2023/08/06 06:53:12;;;;;;;5.95;3.33;;;;;;;22.21;67.93;99043.22;5078628;28;20088;-78
2023/08/06 06:56:01;;;;;;;5.60;3.65;;;;;;;22.16;67.18;99045.09;5077760;28;20089;-78
2023/08/06 06:58:45;;;;;;;5.45;3.63;;;;;;;23.05;66.47;99041.00;5080671;28;20405;-77
2023/08/06 07:01:29;;;;;;;6.43;3.25;;;;;;;22.32;67.32;99053.88;5078603;28;20031;-77
2023/08/06 07:04:13;;;;;;;6.15;3.45;;;;;;;22.13;67.08;99045.63;5073963;28;20121;-77
2023/08/06 07:06:57;;;;;;;4.30;3.33;;;;;;;22.90;65.47;99045.38;5075723;28;20051;-77
2023/08/06 07:09:41;;;;;;;4.78;3.50;;;;;;;22.98;63.85;99060.03;5075486;28;20120;-77
2023/08/06 07:12:26;;;;;;;4.10;3.25;;;;;;;21.93;65.42;99063.31;5079392;28;20089;-76
2023/08/06 07:15:10;;;;;;;6.18;3.38;;;;;;;22.97;64.76;99064.59;5077434;28;20043;-75
2023/08/06 07:17:54;;;;;;;5.13;3.72;;;;;;;21.61;65.23;99073.19;5075991;28;20060;-75
2023/08/06 07:20:39;;;;;;;6.65;3.38;;;;;;;22.77;64.35;99056.66;5080179;28;20297;-75
2023/08/06 07:23:24;;;;;;;8.13;3.35;;;;;;;22.40;65.48;99075.53;5073893;28;20047;-76
2023/08/06 07:26:09;;;;;;;5.88;3.17;;;;;;;23.08;64.74;99062.66;5081808;28;20040;-76
2023/08/06 07:28:53;;;;;;;5.82;3.63;;;;;;;23.09;63.97;99066.13;5076144;28;20106;-76
2023/08/06 07:31:37;;;;;;;4.65;3.33;;;;;;;22.83;63.16;99056.38;5086324;28;20156;-77
2023/08/06 07:34:22;;;;;;;6.38;3.42;;;;;;;22.74;64.44;99060.72;5076632;28;20506;-77
2023/08/06 07:37:06;;;;;;;5.22;3.38;;;;;;;23.01;63.71;99067.53;5075581;28;20066;-76
2023/08/06 07:39:50;;;;;;;;;;;;;;;22.45;63.47;99073.91;5071929;28;20086;-77
2023/08/06 07:42:34;;;;;;;5.35;3.53;;;;;;;22.39;63.37;99065.88;5073381;28;20385;-76
2023/08/06 07:45:18;;;;;;;5.72;3.65;;;;;;;22.04;64.82;99070.25;5080162;28;20051;-77
2023/08/06 07:48:03;;;;;;;4.88;3.00;;;;;;;22.69;63.47;99079.44;5076807;28;20071;-76
2023/08/06 07:50:50;;;;;;;7.07;3.38;;;;;;;23.22;63.03;99086.94;5075801;28;20062;-76
2023/08/06 07:53:34;;;;;;;3.38;3.03;;;;;;;22.65;63.15;99089.91;5075898;28;20141;-76
2023/08/06 07:56:18;;;;;;;6.47;3.75;;;;;;;22.93;63.57;99089.53;5076023;28;20115;-76
2023/08/06 07:59:02;;;;;;;4.80;3.72;;;;;;;23.52;61.64;99098.56;5075013;28;20055;-76
2023/08/06 08:01:46;;;;;;;4.75;3.33;;;;;;;24.43;60.48;99091.03;5080267;28;20074;-75
2023/08/06 08:04:32;;;;;;;3.78;2.95;;;;;;;23.89;59.75;99098.25;5073598;28;20055;-76
2023/08/06 08:07:16;;;;;;;5.55;3.45;;;;;;;23.68;59.80;99095.75;5066354;28;20052;-75
2023/08/06 08:10:00;;;;;;;4.53;3.28;;;;;;;24.30;60.61;99102.47;5073397;28;20552;-74
2023/08/06 08:12:47;;;;;;;3.70;3.25;;;;;;;24.31;60.08;99098.72;5072107;28;20417;-75
2023/08/06 08:15:32;;;;;;;5.13;3.30;;;;;;;23.13;60.26;99101.97;5080313;28;20127;-75
2023/08/06 08:18:17;;;;;;;4.03;3.60;;;;;;;24.22;59.59;99106.56;5080670;28;20119;-75
2023/08/06 08:21:01;;;;;;;4.07;3.30;;;;;;;24.34;59.27;99106.19;5080606;28;20047;-76
2023/08/06 08:23:45;;;;;;;4.07;3.10;;;;;;;24.30;58.73;99103.25;5081394;28;20117;-75
2023/08/06 08:26:29;;;;;;;5.75;3.33;;;;;;;24.25;58.54;99100.63;5072766;28;20406;-74
2023/08/06 08:29:13;;;;;;;5.22;3.42;;;;;;;25.15;57.36;99110.84;5077144;28;20067;-74
2023/08/06 08:31:57;;;;;;;5.93;4.75;;;;;;;25.13;56.60;99113.03;5079630;28;20047;-74
2023/08/06 08:34:41;;;;;;;5.95;3.45;;;;;;;24.97;57.30;99125.09;5075766;28;20043;-74
2023/08/06 08:37:24;;;;;;;6.07;4.07;;;;;;;25.32;56.34;99113.03;5076208;28;20066;-75
2023/08/06 08:40:09;;;;;;;4.97;3.70;;;;;;;24.00;57.33;99112.38;5077600;28;20036;-75
2023/08/06 08:42:54;;;;;;;3.92;3.33;;;;;;;24.10;57.86;99109.66;5068451;28;20043;-75
2023/08/06 08:45:40;;;;;;;6.38;3.65;;;;;;;24.48;57.29;99108.97;5075902;28;20109;-77
2023/08/06 08:48:26;;;;;;;4.35;3.20;;;;;;;24.62;58.40;99101.84;5073354;28;20113;-77
2023/08/06 08:51:12;;;;;;;5.45;3.30;;;;;;;25.24;57.59;99108.31;5072732;28;20047;-79
2023/08/06 08:53:57;;;;;;;5.47;3.75;;;;;;;25.37;55.53;99106.81;5075449;28;20399;-79
2023/08/06 08:56:41;;;;;;;5.03;3.95;;;;;;;25.24;56.17;99098.38;5079534;28;20038;-78
2023/08/06 08:59:26;;;;;;;3.97;3.05;;;;;;;26.05;54.47;99098.50;5079974;28;20067;-78
2023/08/06 09:02:13;;;;;;;4.15;3.65;;;;;;;24.78;55.38;99117.81;5079256;28;20075;-78
2023/08/06 09:05:02;;;;;;;4.75;3.97;;;;;;;24.63;56.58;99106.13;5079017;28;20504;-78
2023/08/06 09:07:48;;;;;;;4.63;3.47;;;;;;;25.28;56.93;99119.28;5083241;28;20047;-78
2023/08/06 09:10:33;;;;;;;7.75;3.90;;;;;;;25.06;56.90;99118.78;5076733;28;20508;-78
2023/08/06 09:13:17;;;;;;;5.47;3.30;;;;;;;25.66;55.96;99120.09;5080107;28;20047;-79
2023/08/06 09:16:01;;;;;;;5.75;3.60;;;;;;;24.10;57.37;99121.16;5077532;28;20093;-79
2023/08/06 09:18:45;;;;;;;;;;;;;;;24.10;58.54;99121.16;5082323;28;20066;-78
2023/08/06 09:21:29;;;;;;;4.32;3.17;;;;;;;23.82;57.79;99115.47;5075990;28;19923;-78
2023/08/06 09:24:13;;;;;;;5.60;3.35;;;;;;;23.87;57.94;99129.91;5077259;28;20464;-78
2023/08/06 09:27:03;;;;;;;3.63;3.15;;;;;;;23.78;58.42;99124.34;5076513;28;20055;-78
2023/08/06 09:29:47;;;;;;;4.28;3.13;;;;;;;23.41;58.39;99131.03;5078503;28;20659;-78
2023/08/06 09:32:48;;;;;;;7.55;3.58;;;;;;;23.27;58.76;99128.19;5081564;28;20059;-79
2023/08/06 09:35:32;;;;;;;7.30;3.50;;;;;;;24.04;59.35;99132.19;5078957;28;20093;-78
2023/08/06 09:38:16;;;;;;;4.18;3.20;;;;;;;24.87;57.65;99136.75;5086258;28;20076;-78
2023/08/06 09:41:00;;;;;;;4.53;3.38;;;;;;;24.24;56.41;99141.94;5083048;28;20394;-79
2023/08/06 09:43:44;;;;;;;4.20;3.50;;;;;;;23.28;57.85;99148.53;5081753;28;20512;-78
2023/08/06 09:46:28;;;;;;;3.85;3.45;;;;;;;23.68;57.64;99149.34;5085764;28;20458;-78
2023/08/06 09:49:12;;;;;;;4.20;3.40;;;;;;;24.12;57.41;99142.34;5084788;28;20540;-77
2023/08/06 09:51:58;;;;;;;4.43;3.25;;;;;;;24.55;56.70;99147.00;5084938;28;20584;-79
2023/08/06 09:54:43;;;;;;;4.30;3.38;;;;;;;24.32;57.41;99144.00;5085138;28;20078;-77
2023/08/06 09:57:29;;;;;;;5.55;3.10;;;;;;;24.34;56.84;99139.16;5082895;28;20089;-77
2023/08/06 10:00:13;;;;;;;4.10;3.55;;;;;;;25.58;56.34;99153.00;5082989;28;20042;-77
2023/08/06 10:03:00;;;;;;;3.85;3.38;;;;;;;24.91;55.32;99170.78;5086177;28;20043;-77
2023/08/06 10:05:44;;;;;;;4.63;3.05;;;;;;;25.55;54.86;99155.47;5083370;28;20039;-77
2023/08/06 10:08:28;;;;;;;3.67;3.03;;;;;;;24.90;55.25;99158.44;5085527;28;20401;-77
2023/08/06 10:11:14;;;;;;;4.10;3.65;;;;;;;24.93;55.07;99157.84;5086310;28;20047;-77
2023/08/06 10:14:05;;;;;;;4.13;3.50;;;;;;;26.28;54.41;99155.13;5086825;28;20085;-77
2023/08/06 10:16:50;;;;;;;5.82;3.33;;;;;;;25.81;52.74;99151.31;5087095;28;20500;-77
2023/08/06 10:19:35;;;;;;;3.33;2.92;;;;;;;26.17;54.17;99155.31;5086896;28;20051;-77
2023/08/06 10:22:19;;;;;;;6.03;4.05;;;;;;;27.12;52.33;99161.34;5087210;28;20165;-77
2023/08/06 10:25:07;;;;;;;5.60;3.22;;;;;;;26.53;51.43;99159.25;5083503;28;20500;-79
2023/08/06 10:27:51;;;;;;;4.05;3.17;;;;;;;25.81;52.32;99159.38;5082445;28;20047;-79
2023/08/06 10:30:43;;;;;;;3.50;3.20;;;;;;;26.91;51.56;99161.75;5085127;28;20063;-77
2023/08/06 10:33:41;;;;;;;6.30;3.25;;;;;;;26.91;51.74;99161.75;5084147;28;20440;-79
2023/08/06 10:36:26;;;;;;;3.10;2.55;;;;;;;27.68;48.69;99161.19;5082124;28;20366;-80
2023/08/06 10:39:14;;;;;;;3.50;3.08;;;;;;;27.04;48.72;99162.03;5083037;28;20124;-80
2023/08/06 10:42:01;;;;;;;4.00;3.40;;;;;;;26.96;49.68;99160.84;5074290;28;20641;-81
2023/08/06 10:45:17;;;;;;;3.65;3.10;;;;;;;26.87;49.56;99150.00;5084241;28;20098;-79
2023/08/06 10:48:01;;;;;;;3.95;3.47;;;;;;;25.99;49.82;99164.19;5079476;28;20167;-79
2023/08/06 10:50:46;;;;;;;4.30;3.38;;;;;;;26.27;50.17;99159.72;5078532;28;20038;-78
2023/08/06 10:53:30;;;;;;;3.75;3.22;;;;;;;25.10;51.32;99165.44;5082170;28;20516;-80
2023/08/06 10:56:15;;;;;;;3.30;3.00;;;;;;;26.31;49.57;99160.69;5077939;28;20684;-79
2023/08/06 10:58:59;;;;;;;3.50;3.00;;;;;;;26.21;50.48;99164.38;5070272;28;20059;-79
2023/08/06 11:01:43;;;;;;;3.78;3.00;;;;;;;26.14;49.69;99171.19;5065306;28;20036;-82
2023/08/06 11:04:31;;;;;;;3.13;2.83;;;;;;;26.52;50.10;99169.22;5073076;28;20097;-80
2023/08/06 11:07:15;;;;;;;4.03;2.80;;;;;;;27.28;48.37;99161.00;5080869;28;20462;-79
2023/08/06 11:10:07;;;;;;;3.33;2.83;;;;;;;26.88;48.39;99156.97;5077964;28;20445;-78
2023/08/06 11:12:51;;;;;;;3.10;2.80;;;;;;;26.50;48.65;99157.13;5076631;28;20055;-80
2023/08/06 11:15:35;;;;;;;3.25;2.90;;;;;;;26.72;49.33;99161.03;5082747;28;20044;-82
2023/08/06 11:18:18;;;;;;;4.57;3.03;;;;;;;25.53;49.07;99159.25;5080999;28;20456;-78
2023/08/06 11:21:03;;;;;;;3.42;3.13;;;;;;;26.36;49.22;99167.91;5073548;28;20066;-76
2023/08/06 11:23:47;;;;;;;4.75;3.25;;;;;;;26.31;49.49;99159.91;5070457;28;20110;-77
2023/08/06 11:26:32;;;;;;;2.88;2.58;;;;;;;26.73;48.33;99176.13;5073320;28;20062;-77
2023/08/06 11:29:16;;;;;;;5.90;3.28;;;;;;;27.66;47.86;99168.78;5075024;28;20048;-77
2023/08/06 11:32:05;;;;;;;3.72;2.72;;;;;;;27.08;48.40;99176.50;5072645;28;20179;-77
2023/08/06 11:34:49;;;;;;;4.47;2.38;;;;;;;28.27;46.80;99165.69;5079078;28;20099;-77
2023/08/06 11:37:34;;;;;;;4.68;2.80;;;;;;;27.85;47.56;99159.72;5083753;28;20046;-77
2023/08/06 11:40:18;;;;;;;4.75;3.05;;;;;;;27.67;49.47;99164.22;5071454;28;20046;-76
2023/08/06 11:43:02;;;;;;;3.08;2.78;;;;;;;27.34;47.53;99167.88;5076378;28;20047;-77
2023/08/06 11:45:46;;;;;;;3.30;2.83;;;;;;;27.62;46.42;99162.41;5078926;28;20048;-75
2023/08/06 11:48:30;;;;;;;4.25;2.70;;;;;;;28.09;46.68;99154.00;5077298;28;20554;-77
2023/08/06 11:51:15;;;;;;;3.30;2.47;;;;;;;27.87;47.24;99154.81;5080788;28;20394;-78
2023/08/06 11:53:59;;;;;;;3.30;2.92;;;;;;;28.48;46.87;99162.44;5079421;28;20051;-77
2023/08/06 11:56:46;;;;;;;3.67;2.78;;;;;;;27.72;47.64;99161.38;5072585;28;20055;-76
2023/08/06 11:59:30;;;;;;;4.00;3.00;;;;;;;28.43;46.40;99154.50;5073762;28;20125;-77
2023/08/06 12:02:14;;;;;;;2.60;2.40;;;;;;;27.91;47.56;99153.13;5075316;28;20039;-77
2023/08/06 12:05:11;;;;;;;2.58;2.38;;;;;;;26.99;47.91;99154.84;5081491;28;20089;-77
2023/08/06 12:07:57;;;;;;;3.72;2.50;;;;;;;27.76;48.39;99163.16;5084367;28;20115;-77
2023/08/06 12:10:41;;;;;;;3.53;2.60;;;;;;;26.37;49.77;99158.72;5071964;28;20501;-76
2023/08/06 12:13:25;;;;;;;3.00;2.70;;;;;;;26.88;48.47;99170.44;5079767;28;20050;-76
2023/08/06 12:16:09;;;;;;;6.47;2.72;;;;;;;26.24;50.04;99165.69;5081398;28;20051;-76
2023/08/06 12:18:53;;;;;;;2.50;2.30;;;;;;;26.51;49.88;99169.50;5079746;28;20093;-77
2023/08/06 12:21:37;;;;;;;3.00;2.70;;;;;;;26.38;50.14;99165.69;5080365;28;20418;-76
2023/08/06 12:24:21;;;;;;;3.45;2.70;;;;;;;26.96;49.45;99160.06;5075463;28;20450;-76
2023/08/06 12:27:05;;;;;;;4.50;3.08;;;;;;;26.97;47.88;99172.44;5077411;28;20055;-76
2023/08/06 12:29:49;;;;;;;4.70;3.20;;;;;;;26.63;49.18;99177.09;5073851;28;20101;-76
2023/08/06 12:32:34;;;;;;;4.70;3.63;;;;;;;26.61;48.29;99166.63;5077897;28;20067;-76
2023/08/06 12:35:18;;;;;;;5.05;3.38;;;;;;;28.07;48.12;99167.00;5080007;28;20094;-77
2023/08/06 12:38:01;;;;;;;3.15;2.63;;;;;;;28.49;48.15;99172.97;5077401;28;20089;-76
2023/08/06 12:40:45;;;;;;;2.80;2.60;;;;;;;27.66;46.02;99168.78;5082043;28;20043;-76
2023/08/06 12:43:29;;;;;;;3.17;2.88;;;;;;;27.62;47.20;99157.84;5073718;28;20100;-76
2023/08/06 12:46:13;;;;;;;2.70;2.50;;;;;;;27.99;46.02;99165.03;5076146;28;20071;-76
2023/08/06 12:48:57;;;;;;;2.70;2.33;;;;;;;29.62;45.62;99170.03;5078573;28;20094;-77
2023/08/06 12:51:41;;;;;;;2.80;2.60;;;;;;;28.59;46.06;99162.97;5080055;28;20094;-74
2023/08/06 12:54:26;;;;;;;3.97;2.67;;;;;;;28.14;45.41;99164.66;5082937;28;20511;-75